Van Cleve, Kentucky
Current Conditions -  °F | °C
As of 4:15 AM on Tuesday 27 Jan 2015 (Local Time) from KCEY Reporting Station
Overcast Overcast  
Wind Chill: 29°   Ceiling: 6000
Heat Index: 36°   Visibility: 10mi
Dew Point: 32°   Wind: 8mph
Humidity: 87%   Direction: 290°WNW
Pressure: 29.92"   Gusts: NA
Location:  36.618°N, 88.2562°W
Report Text: KCEY 271015Z AUTO 29007KT 10SM OVC060 02/00 A2992 RMK AO1
Loading
Personal Weather Stations






























Interactive Weather Map New forecast layout! Learn more

10-Day Weather Forecast

Advertisements
Track Severe Weather on mobile